sensor_id;sensor_type;location;lat;lon;timestamp;P1;durP1;ratioP1;P2;durP2;ratioP2
7047;SDS011;3565;53.254;10.352;2023-05-10T00:02:07;5.60;;;5.10;;
7047;SDS011;3565;53.254;10.352;2023-05-10T00:04:36;5.80;;;4.87;;
7047;SDS011;3565;53.254;10.352;2023-05-10T00:07:05;6.13;;;5.00;;
7047;SDS011;3565;53.254;10.352;2023-05-10T00:09:34;6.23;;;4.90;;
7047;SDS011;3565;53.254;10.352;2023-05-10T00:12:04;5.63;;;5.03;;
7047;SDS011;3565;53.254;10.352;2023-05-10T00:14:33;8.40;;;5.40;;
7047;SDS011;3565;53.254;10.352;2023-05-10T00:17:11;6.67;;;5.20;;
7047;SDS011;3565;53.254;10.352;2023-05-10T00:22:18;6.97;;;5.10;;
7047;SDS011;3565;53.254;10.352;2023-05-10T00:27:26;9.37;;;5.10;;
7047;SDS011;3565;53.254;10.352;2023-05-10T00:29:55;6.57;;;5.20;;
7047;SDS011;3565;53.254;10.352;2023-05-10T00:32:34;5.87;;;5.23;;
7047;SDS011;3565;53.254;10.352;2023-05-10T00:37:40;6.63;;;5.40;;
7047;SDS011;3565;53.254;10.352;2023-05-10T00:40:10;8.70;;;5.30;;
7047;SDS011;3565;53.254;10.352;2023-05-10T00:42:40;8.90;;;4.93;;
7047;SDS011;3565;53.254;10.352;2023-05-10T00:47:46;8.43;;;5.63;;
7047;SDS011;3565;53.254;10.352;2023-05-10T00:50:18;7.97;;;5.13;;
7047;SDS011;3565;53.254;10.352;2023-05-10T00:55:25;7.53;;;5.07;;
7047;SDS011;3565;53.254;10.352;2023-05-10T00:57:54;6.37;;;5.50;;
7047;SDS011;3565;53.254;10.352;2023-05-10T01:00:24;7.03;;;5.87;;
7047;SDS011;3565;53.254;10.352;2023-05-10T01:05:31;7.80;;;5.40;;
7047;SDS011;3565;53.254;10.352;2023-05-10T01:08:00;8.03;;;5.60;;
7047;SDS011;3565;53.254;10.352;2023-05-10T01:10:42;6.47;;;5.77;;
7047;SDS011;3565;53.254;10.352;2023-05-10T01:15:50;6.37;;;5.60;;
7047;SDS011;3565;53.254;10.352;2023-05-10T01:18:20;7.23;;;5.37;;
7047;SDS011;3565;53.254;10.352;2023-05-10T01:20:53;6.13;;;5.50;;
7047;SDS011;3565;53.254;10.352;2023-05-10T01:26:31;8.70;;;5.50;;
7047;SDS011;3565;53.254;10.352;2023-05-10T01:35:29;6.87;;;5.33;;
7047;SDS011;3565;53.254;10.352;2023-05-10T01:38:03;7.43;;;5.60;;
7047;SDS011;3565;53.254;10.352;2023-05-10T01:40:35;5.90;;;5.33;;
7047;SDS011;3565;53.254;10.352;2023-05-10T01:43:07;7.37;;;5.20;;
7047;SDS011;3565;53.254;10.352;2023-05-10T01:45:39;9.10;;;5.60;;
7047;SDS011;3565;53.254;10.352;2023-05-10T01:50:48;6.30;;;5.50;;
7047;SDS011;3565;53.254;10.352;2023-05-10T01:53:19;6.20;;;5.40;;
7047;SDS011;3565;53.254;10.352;2023-05-10T01:55:51;7.50;;;5.63;;
7047;SDS011;3565;53.254;10.352;2023-05-10T01:58:31;6.73;;;5.77;;
7047;SDS011;3565;53.254;10.352;2023-05-10T02:01:03;5.43;;;4.93;;
7047;SDS011;3565;53.254;10.352;2023-05-10T02:03:42;7.97;;;5.63;;
7047;SDS011;3565;53.254;10.352;2023-05-10T02:06:12;9.07;;;5.73;;
7047;SDS011;3565;53.254;10.352;2023-05-10T02:08:43;7.17;;;5.73;;
7047;SDS011;3565;53.254;10.352;2023-05-10T02:13:51;7.37;;;5.03;;
7047;SDS011;3565;53.254;10.352;2023-05-10T02:16:23;11.20;;;5.73;;
7047;SDS011;3565;53.254;10.352;2023-05-10T02:18:56;8.60;;;5.50;;
7047;SDS011;3565;53.254;10.352;2023-05-10T02:21:36;7.00;;;5.90;;
7047;SDS011;3565;53.254;10.352;2023-05-10T02:24:07;6.07;;;5.10;;
7047;SDS011;3565;53.254;10.352;2023-05-10T02:26:37;6.43;;;5.40;;
7047;SDS011;3565;53.254;10.352;2023-05-10T02:31:45;7.57;;;5.50;;
7047;SDS011;3565;53.254;10.352;2023-05-10T02:36:52;8.53;;;5.67;;
7047;SDS011;3565;53.254;10.352;2023-05-10T02:39:22;6.93;;;5.63;;
7047;SDS011;3565;53.254;10.352;2023-05-10T02:44:31;6.60;;;5.50;;
7047;SDS011;3565;53.254;10.352;2023-05-10T02:47:03;6.90;;;5.63;;
7047;SDS011;3565;53.254;10.352;2023-05-10T02:49:42;8.23;;;5.80;;
7047;SDS011;3565;53.254;10.352;2023-05-10T02:54:49;6.90;;;5.70;;
7047;SDS011;3565;53.254;10.352;2023-05-10T02:57:21;8.87;;;5.47;;
7047;SDS011;3565;53.254;10.352;2023-05-10T02:59:52;6.37;;;5.77;;
7047;SDS011;3565;53.254;10.352;2023-05-10T03:02:31;7.87;;;5.83;;
7047;SDS011;3565;53.254;10.352;2023-05-10T03:07:39;6.63;;;5.33;;
7047;SDS011;3565;53.254;10.352;2023-05-10T03:10:10;9.00;;;6.03;;
7047;SDS011;3565;53.254;10.352;2023-05-10T03:12:55;9.67;;;5.57;;
7047;SDS011;3565;53.254;10.352;2023-05-10T03:15:30;8.73;;;6.03;;
7047;SDS011;3565;53.254;10.352;2023-05-10T03:18:02;8.97;;;5.87;;
7047;SDS011;3565;53.254;10.352;2023-05-10T03:20:35;7.97;;;5.50;;
7047;SDS011;3565;53.254;10.352;2023-05-10T03:23:17;7.90;;;5.77;;
7047;SDS011;3565;53.254;10.352;2023-05-10T03:28:25;7.10;;;6.20;;
7047;SDS011;3565;53.254;10.352;2023-05-10T03:30:55;7.60;;;6.10;;
7047;SDS011;3565;53.254;10.352;2023-05-10T03:33:34;8.60;;;5.97;;
7047;SDS011;3565;53.254;10.352;2023-05-10T03:38:42;7.33;;;5.90;;
7047;SDS011;3565;53.254;10.352;2023-05-10T03:41:11;7.00;;;5.70;;
7047;SDS011;3565;53.254;10.352;2023-05-10T03:43:49;6.40;;;5.20;;
7047;SDS011;3565;53.254;10.352;2023-05-10T03:48:58;7.00;;;6.20;;
7047;SDS011;3565;53.254;10.352;2023-05-10T03:51:27;6.43;;;5.80;;
7047;SDS011;3565;53.254;10.352;2023-05-10T03:53:57;8.27;;;6.23;;
7047;SDS011;3565;53.254;10.352;2023-05-10T03:56:36;10.27;;;6.67;;
7047;SDS011;3565;53.254;10.352;2023-05-10T03:59:04;7.90;;;6.20;;
7047;SDS011;3565;53.254;10.352;2023-05-10T04:01:35;7.63;;;5.90;;
7047;SDS011;3565;53.254;10.352;2023-05-10T04:06:41;6.47;;;5.53;;
7047;SDS011;3565;53.254;10.352;2023-05-10T04:09:10;9.43;;;5.90;;
7047;SDS011;3565;53.254;10.352;2023-05-10T04:11:39;6.20;;;5.60;;
7047;SDS011;3565;53.254;10.352;2023-05-10T04:16:45;6.57;;;5.97;;
7047;SDS011;3565;53.254;10.352;2023-05-10T04:19:14;7.50;;;5.77;;
7047;SDS011;3565;53.254;10.352;2023-05-10T04:21:53;6.33;;;5.73;;
7047;SDS011;3565;53.254;10.352;2023-05-10T04:24:22;7.17;;;5.70;;
7047;SDS011;3565;53.254;10.352;2023-05-10T04:29:30;9.17;;;5.60;;
7047;SDS011;3565;53.254;10.352;2023-05-10T04:34:42;7.60;;;6.27;;
7047;SDS011;3565;53.254;10.352;2023-05-10T04:37:17;8.60;;;6.20;;
7047;SDS011;3565;53.254;10.352;2023-05-10T04:39:55;6.20;;;5.60;;
7047;SDS011;3565;53.254;10.352;2023-05-10T04:42:27;7.10;;;6.00;;
7047;SDS011;3565;53.254;10.352;2023-05-10T04:47:35;9.70;;;6.03;;
7047;SDS011;3565;53.254;10.352;2023-05-10T04:55:22;8.20;;;5.63;;
7047;SDS011;3565;53.254;10.352;2023-05-10T04:57:51;6.33;;;5.70;;
7047;SDS011;3565;53.254;10.352;2023-05-10T05:00:29;8.93;;;5.67;;
7047;SDS011;3565;53.254;10.352;2023-05-10T05:05:35;6.50;;;5.80;;
7047;SDS011;3565;53.254;10.352;2023-05-10T05:08:05;6.87;;;5.77;;
7047;SDS011;3565;53.254;10.352;2023-05-10T05:10:43;7.37;;;5.73;;
7047;SDS011;3565;53.254;10.352;2023-05-10T05:15:50;6.93;;;5.47;;
7047;SDS011;3565;53.254;10.352;2023-05-10T05:18:19;7.70;;;5.93;;
7047;SDS011;3565;53.254;10.352;2023-05-10T05:20:48;6.27;;;5.20;;
7047;SDS011;3565;53.254;10.352;2023-05-10T05:23:27;9.90;;;5.70;;
7047;SDS011;3565;53.254;10.352;2023-05-10T05:28:33;6.97;;;5.47;;
7047;SDS011;3565;53.254;10.352;2023-05-10T05:31:03;8.30;;;5.53;;
7047;SDS011;3565;53.254;10.352;2023-05-10T05:33:41;6.10;;;5.20;;
7047;SDS011;3565;53.254;10.352;2023-05-10T05:38:48;7.47;;;5.40;;
7047;SDS011;3565;53.254;10.352;2023-05-10T05:41:17;5.53;;;5.03;;
7047;SDS011;3565;53.254;10.352;2023-05-10T05:43:55;6.77;;;5.33;;
7047;SDS011;3565;53.254;10.352;2023-05-10T05:46:25;6.93;;;5.43;;
7047;SDS011;3565;53.254;10.352;2023-05-10T05:48:54;6.17;;;5.57;;
7047;SDS011;3565;53.254;10.352;2023-05-10T05:51:34;5.17;;;4.67;;
7047;SDS011;3565;53.254;10.352;2023-05-10T05:56:42;5.83;;;5.10;;
7047;SDS011;3565;53.254;10.352;2023-05-10T05:59:11;5.50;;;5.00;;
7047;SDS011;3565;53.254;10.352;2023-05-10T06:01:50;6.17;;;5.57;;
7047;SDS011;3565;53.254;10.352;2023-05-10T06:04:19;5.00;;;4.60;;
7047;SDS011;3565;53.254;10.352;2023-05-10T06:06:48;8.60;;;5.40;;
7047;SDS011;3565;53.254;10.352;2023-05-10T06:09:26;5.93;;;5.33;;
7047;SDS011;3565;53.254;10.352;2023-05-10T06:11:56;7.87;;;5.10;;
7047;SDS011;3565;53.254;10.352;2023-05-10T06:14:35;9.07;;;5.33;;
7047;SDS011;3565;53.254;10.352;2023-05-10T06:17:04;6.80;;;4.67;;
7047;SDS011;3565;53.254;10.352;2023-05-10T06:19:42;7.60;;;4.97;;
7047;SDS011;3565;53.254;10.352;2023-05-10T06:24:49;6.50;;;5.00;;
7047;SDS011;3565;53.254;10.352;2023-05-10T06:27:18;6.77;;;5.37;;
7047;SDS011;3565;53.254;10.352;2023-05-10T06:29:56;5.70;;;5.20;;
7047;SDS011;3565;53.254;10.352;2023-05-10T06:32:25;6.20;;;4.80;;
7047;SDS011;3565;53.254;10.352;2023-05-10T06:37:31;5.73;;;5.23;;
7047;SDS011;3565;53.254;10.352;2023-05-10T06:40:00;5.83;;;5.33;;
7047;SDS011;3565;53.254;10.352;2023-05-10T06:42:38;5.73;;;5.00;;
7047;SDS011;3565;53.254;10.352;2023-05-10T06:47:48;5.33;;;4.83;;
7047;SDS011;3565;53.254;10.352;2023-05-10T06:50:17;5.87;;;5.30;;
7047;SDS011;3565;53.254;10.352;2023-05-10T06:52:56;5.20;;;4.70;;
7047;SDS011;3565;53.254;10.352;2023-05-10T06:55:25;5.63;;;4.97;;
7047;SDS011;3565;53.254;10.352;2023-05-10T06:57:54;5.77;;;5.13;;
7047;SDS011;3565;53.254;10.352;2023-05-10T07:00:23;12.67;;;5.30;;
7047;SDS011;3565;53.254;10.352;2023-05-10T07:02:52;6.47;;;5.40;;
7047;SDS011;3565;53.254;10.352;2023-05-10T07:05:22;5.47;;;4.97;;
7047;SDS011;3565;53.254;10.352;2023-05-10T07:10:31;6.43;;;5.10;;
7047;SDS011;3565;53.254;10.352;2023-05-10T07:13:01;6.17;;;5.57;;
7047;SDS011;3565;53.254;10.352;2023-05-10T07:15:39;7.73;;;5.40;;
7047;SDS011;3565;53.254;10.352;2023-05-10T07:18:08;7.13;;;5.67;;
7047;SDS011;3565;53.254;10.352;2023-05-10T07:20:48;5.87;;;5.00;;
7047;SDS011;3565;53.254;10.352;2023-05-10T07:25:54;5.97;;;5.10;;
7047;SDS011;3565;53.254;10.352;2023-05-10T07:28:24;5.93;;;5.33;;
7047;SDS011;3565;53.254;10.352;2023-05-10T07:30:53;5.90;;;4.40;;
7047;SDS011;3565;53.254;10.352;2023-05-10T07:33:31;6.30;;;5.30;;
7047;SDS011;3565;53.254;10.352;2023-05-10T07:38:39;7.93;;;5.70;;
7047;SDS011;3565;53.254;10.352;2023-05-10T07:41:08;9.00;;;5.90;;
7047;SDS011;3565;53.254;10.352;2023-05-10T07:43:46;6.40;;;5.40;;
7047;SDS011;3565;53.254;10.352;2023-05-10T07:48:56;5.97;;;5.40;;
7047;SDS011;3565;53.254;10.352;2023-05-10T07:51:25;12.27;;;5.67;;
7047;SDS011;3565;53.254;10.352;2023-05-10T07:56:32;8.40;;;5.17;;
7047;SDS011;3565;53.254;10.352;2023-05-10T07:59:01;6.43;;;5.33;;
7047;SDS011;3565;53.254;10.352;2023-05-10T08:01:40;7.20;;;5.40;;
7047;SDS011;3565;53.254;10.352;2023-05-10T08:06:47;7.33;;;4.80;;
7047;SDS011;3565;53.254;10.352;2023-05-10T08:09:16;8.80;;;5.70;;
7047;SDS011;3565;53.254;10.352;2023-05-10T08:11:46;6.20;;;5.60;;
7047;SDS011;3565;53.254;10.352;2023-05-10T08:16:54;6.57;;;5.97;;
7047;SDS011;3565;53.254;10.352;2023-05-10T08:19:23;6.07;;;5.47;;
7047;SDS011;3565;53.254;10.352;2023-05-10T08:24:29;7.27;;;5.60;;
7047;SDS011;3565;53.254;10.352;2023-05-10T08:26:58;9.10;;;5.50;;
7047;SDS011;3565;53.254;10.352;2023-05-10T08:29:39;6.70;;;5.80;;
7047;SDS011;3565;53.254;10.352;2023-05-10T08:34:45;7.43;;;5.80;;
7047;SDS011;3565;53.254;10.352;2023-05-10T08:37:14;7.97;;;5.80;;
7047;SDS011;3565;53.254;10.352;2023-05-10T08:39:52;5.90;;;5.30;;
7047;SDS011;3565;53.254;10.352;2023-05-10T08:42:21;7.07;;;5.93;;
7047;SDS011;3565;53.254;10.352;2023-05-10T08:47:30;6.80;;;6.10;;
7047;SDS011;3565;53.254;10.352;2023-05-10T08:49:59;7.13;;;5.83;;
7047;SDS011;3565;53.254;10.352;2023-05-10T08:52:38;7.33;;;6.53;;
7047;SDS011;3565;53.254;10.352;2023-05-10T08:57:52;8.87;;;6.00;;
7047;SDS011;3565;53.254;10.352;2023-05-10T09:00:22;7.03;;;6.33;;
7047;SDS011;3565;53.254;10.352;2023-05-10T09:05:29;6.33;;;5.73;;
7047;SDS011;3565;53.254;10.352;2023-05-10T09:07:59;9.50;;;5.80;;
7047;SDS011;3565;53.254;10.352;2023-05-10T09:10:37;9.13;;;5.93;;
7047;SDS011;3565;53.254;10.352;2023-05-10T09:15:45;9.90;;;6.33;;
7047;SDS011;3565;53.254;10.352;2023-05-10T09:18:14;8.43;;;6.37;;
7047;SDS011;3565;53.254;10.352;2023-05-10T09:20:53;8.13;;;6.07;;
7047;SDS011;3565;53.254;10.352;2023-05-10T09:23:23;8.00;;;6.00;;
7047;SDS011;3565;53.254;10.352;2023-05-10T09:26:03;6.77;;;5.90;;
7047;SDS011;3565;53.254;10.352;2023-05-10T09:28:32;7.73;;;5.67;;
7047;SDS011;3565;53.254;10.352;2023-05-10T09:33:44;8.37;;;5.60;;
7047;SDS011;3565;53.254;10.352;2023-05-10T09:36:13;7.47;;;5.57;;
7047;SDS011;3565;53.254;10.352;2023-05-10T09:41:23;7.00;;;6.37;;
7047;SDS011;3565;53.254;10.352;2023-05-10T09:46:35;7.13;;;6.50;;
7047;SDS011;3565;53.254;10.352;2023-05-10T09:49:04;8.53;;;6.40;;
7047;SDS011;3565;53.254;10.352;2023-05-10T09:51:43;7.47;;;6.60;;
7047;SDS011;3565;53.254;10.352;2023-05-10T09:56:53;8.33;;;6.77;;
7047;SDS011;3565;53.254;10.352;2023-05-10T09:59:22;8.10;;;6.90;;
7047;SDS011;3565;53.254;10.352;2023-05-10T10:04:33;6.63;;;6.00;;
7047;SDS011;3565;53.254;10.352;2023-05-10T10:07:17;7.80;;;6.10;;
7047;SDS011;3565;53.254;10.352;2023-05-10T10:09:51;7.37;;;6.40;;
7047;SDS011;3565;53.254;10.352;2023-05-10T10:12:30;8.20;;;6.63;;
7047;SDS011;3565;53.254;10.352;2023-05-10T10:17:37;11.07;;;6.90;;
7047;SDS011;3565;53.254;10.352;2023-05-10T10:20:07;10.17;;;7.10;;
7047;SDS011;3565;53.254;10.352;2023-05-10T10:22:46;8.30;;;6.47;;
7047;SDS011;3565;53.254;10.352;2023-05-10T10:30:54;9.87;;;8.00;;
7047;SDS011;3565;53.254;10.352;2023-05-10T10:33:29;9.03;;;7.30;;
7047;SDS011;3565;53.254;10.352;2023-05-10T10:41:53;8.77;;;7.87;;
7047;SDS011;3565;53.254;10.352;2023-05-10T10:44:24;9.10;;;8.20;;
7047;SDS011;3565;53.254;10.352;2023-05-10T10:49:42;9.10;;;8.07;;
7047;SDS011;3565;53.254;10.352;2023-05-10T10:52:21;9.43;;;8.53;;
7047;SDS011;3565;53.254;10.352;2023-05-10T10:57:43;10.60;;;9.20;;
7047;SDS011;3565;53.254;10.352;2023-05-10T11:00:26;10.50;;;9.40;;
7047;SDS011;3565;53.254;10.352;2023-05-10T11:05:38;11.07;;;9.50;;
7047;SDS011;3565;53.254;10.352;2023-05-10T11:08:15;11.60;;;9.73;;
7047;SDS011;3565;53.254;10.352;2023-05-10T11:11:05;10.27;;;9.17;;
7047;SDS011;3565;53.254;10.352;2023-05-10T11:13:44;11.07;;;9.10;;
7047;SDS011;3565;53.254;10.352;2023-05-10T11:16:16;11.10;;;9.77;;
7047;SDS011;3565;53.254;10.352;2023-05-10T11:18:59;11.17;;;9.67;;
7047;SDS011;3565;53.254;10.352;2023-05-10T11:21:30;10.83;;;9.73;;
7047;SDS011;3565;53.254;10.352;2023-05-10T11:24:00;10.73;;;9.50;;
7047;SDS011;3565;53.254;10.352;2023-05-10T11:26:33;11.90;;;9.97;;
7047;SDS011;3565;53.254;10.352;2023-05-10T11:31:44;11.77;;;10.13;;
7047;SDS011;3565;53.254;10.352;2023-05-10T11:34:23;10.70;;;9.60;;
7047;SDS011;3565;53.254;10.352;2023-05-10T11:39:33;11.37;;;9.83;;
7047;SDS011;3565;53.254;10.352;2023-05-10T11:44:40;9.60;;;8.60;;
7047;SDS011;3565;53.254;10.352;2023-05-10T11:47:11;9.10;;;8.20;;
7047;SDS011;3565;53.254;10.352;2023-05-10T11:49:43;9.90;;;8.90;;
7047;SDS011;3565;53.254;10.352;2023-05-10T11:52:35;9.20;;;8.30;;
7047;SDS011;3565;53.254;10.352;2023-05-10T11:57:47;8.47;;;7.57;;
7047;SDS011;3565;53.254;10.352;2023-05-10T12:00:20;9.17;;;8.17;;
7047;SDS011;3565;53.254;10.352;2023-05-10T12:02:59;10.00;;;9.00;;
7047;SDS011;3565;53.254;10.352;2023-05-10T12:08:11;9.80;;;8.77;;
7047;SDS011;3565;53.254;10.352;2023-05-10T12:10:41;9.87;;;8.87;;
7047;SDS011;3565;53.254;10.352;2023-05-10T12:13:24;10.13;;;8.50;;
7047;SDS011;3565;53.254;10.352;2023-05-10T12:18:30;9.73;;;8.73;;
7047;SDS011;3565;53.254;10.352;2023-05-10T12:21:03;10.57;;;9.43;;
7047;SDS011;3565;53.254;10.352;2023-05-10T12:23:42;10.30;;;9.30;;
7047;SDS011;3565;53.254;10.352;2023-05-10T12:28:51;10.00;;;9.10;;
7047;SDS011;3565;53.254;10.352;2023-05-10T12:31:21;9.07;;;8.00;;
7047;SDS011;3565;53.254;10.352;2023-05-10T12:36:27;8.40;;;7.60;;
7047;SDS011;3565;53.254;10.352;2023-05-10T12:39:02;8.43;;;7.63;;
7047;SDS011;3565;53.254;10.352;2023-05-10T12:41:41;8.90;;;8.00;;
7047;SDS011;3565;53.254;10.352;2023-05-10T12:46:47;7.50;;;6.70;;
7047;SDS011;3565;53.254;10.352;2023-05-10T12:49:16;7.33;;;6.63;;
7047;SDS011;3565;53.254;10.352;2023-05-10T12:51:58;6.30;;;5.70;;
7047;SDS011;3565;53.254;10.352;2023-05-10T12:54:27;7.97;;;7.27;;
7047;SDS011;3565;53.254;10.352;2023-05-10T12:59:34;6.77;;;6.10;;
7047;SDS011;3565;53.254;10.352;2023-05-10T13:04:40;7.17;;;6.57;;
7047;SDS011;3565;53.254;10.352;2023-05-10T13:07:10;6.83;;;6.23;;
7047;SDS011;3565;53.254;10.352;2023-05-10T13:09:48;7.07;;;6.47;;
7047;SDS011;3565;53.254;10.352;2023-05-10T13:15:08;5.90;;;5.40;;
7047;SDS011;3565;53.254;10.352;2023-05-10T13:17:47;6.90;;;6.20;;
7047;SDS011;3565;53.254;10.352;2023-05-10T13:20:16;7.10;;;6.40;;
7047;SDS011;3565;53.254;10.352;2023-05-10T13:22:57;6.50;;;5.90;;
7047;SDS011;3565;53.254;10.352;2023-05-10T13:25:26;7.33;;;6.63;;
7047;SDS011;3565;53.254;10.352;2023-05-10T13:30:33;6.63;;;5.93;;
7047;SDS011;3565;53.254;10.352;2023-05-10T13:35:39;6.60;;;6.00;;
7047;SDS011;3565;53.254;10.352;2023-05-10T13:38:08;6.80;;;6.17;;
7047;SDS011;3565;53.254;10.352;2023-05-10T13:40:46;7.60;;;6.63;;
7047;SDS011;3565;53.254;10.352;2023-05-10T13:45:54;4.87;;;4.47;;
7047;SDS011;3565;53.254;10.352;2023-05-10T13:48:26;6.87;;;6.27;;
7047;SDS011;3565;53.254;10.352;2023-05-10T13:50:56;7.30;;;6.53;;
7047;SDS011;3565;53.254;10.352;2023-05-10T13:53:35;6.93;;;6.13;;
7047;SDS011;3565;53.254;10.352;2023-05-10T13:58:42;5.43;;;4.93;;
7047;SDS011;3565;53.254;10.352;2023-05-10T14:01:11;6.33;;;5.17;;
7047;SDS011;3565;53.254;10.352;2023-05-10T14:03:49;6.17;;;5.57;;
7047;SDS011;3565;53.254;10.352;2023-05-10T14:08:57;5.80;;;5.30;;
7047;SDS011;3565;53.254;10.352;2023-05-10T14:11:26;5.97;;;5.47;;
7047;SDS011;3565;53.254;10.352;2023-05-10T14:16:32;5.27;;;4.87;;
7047;SDS011;3565;53.254;10.352;2023-05-10T14:19:03;9.03;;;5.90;;
7047;SDS011;3565;53.254;10.352;2023-05-10T14:21:41;5.10;;;4.70;;
7047;SDS011;3565;53.254;10.352;2023-05-10T14:26:48;5.47;;;5.07;;
7047;SDS011;3565;53.254;10.352;2023-05-10T14:29:18;4.93;;;4.53;;
7047;SDS011;3565;53.254;10.352;2023-05-10T14:34:24;5.20;;;4.80;;
7047;SDS011;3565;53.254;10.352;2023-05-10T14:36:53;5.70;;;5.20;;
7047;SDS011;3565;53.254;10.352;2023-05-10T14:39:35;5.20;;;4.70;;
7047;SDS011;3565;53.254;10.352;2023-05-10T14:44:41;4.93;;;4.53;;
7047;SDS011;3565;53.254;10.352;2023-05-10T14:47:10;5.10;;;4.70;;
7047;SDS011;3565;53.254;10.352;2023-05-10T14:49:39;4.43;;;4.07;;
7047;SDS011;3565;53.254;10.352;2023-05-10T14:54:45;5.07;;;4.40;;
7047;SDS011;3565;53.254;10.352;2023-05-10T14:57:15;4.93;;;4.53;;
7047;SDS011;3565;53.254;10.352;2023-05-10T14:59:45;4.53;;;4.13;;
7047;SDS011;3565;53.254;10.352;2023-05-10T15:02:14;4.80;;;4.40;;
7047;SDS011;3565;53.254;10.352;2023-05-10T15:07:20;4.57;;;4.17;;
7047;SDS011;3565;53.254;10.352;2023-05-10T15:09:50;5.17;;;4.17;;
7047;SDS011;3565;53.254;10.352;2023-05-10T15:12:29;4.27;;;3.93;;
7047;SDS011;3565;53.254;10.352;2023-05-10T15:17:35;4.33;;;3.90;;
7047;SDS011;3565;53.254;10.352;2023-05-10T15:20:06;4.40;;;4.00;;
7047;SDS011;3565;53.254;10.352;2023-05-10T15:22:47;6.57;;;4.43;;
7047;SDS011;3565;53.254;10.352;2023-05-10T15:25:25;4.97;;;4.47;;
7047;SDS011;3565;53.254;10.352;2023-05-10T15:30:32;4.80;;;4.37;;
7047;SDS011;3565;53.254;10.352;2023-05-10T15:33:01;4.30;;;3.90;;
7047;SDS011;3565;53.254;10.352;2023-05-10T15:38:08;4.30;;;3.90;;
7047;SDS011;3565;53.254;10.352;2023-05-10T15:40:37;4.40;;;4.00;;
7047;SDS011;3565;53.254;10.352;2023-05-10T15:43:19;4.53;;;4.13;;
7047;SDS011;3565;53.254;10.352;2023-05-10T15:48:25;5.20;;;4.27;;
7047;SDS011;3565;53.254;10.352;2023-05-10T15:50:56;4.83;;;4.37;;
7047;SDS011;3565;53.254;10.352;2023-05-10T15:53:25;4.60;;;4.20;;
7047;SDS011;3565;53.254;10.352;2023-05-10T15:58:31;4.60;;;4.20;;
7047;SDS011;3565;53.254;10.352;2023-05-10T16:01:00;5.13;;;4.63;;
7047;SDS011;3565;53.254;10.352;2023-05-10T16:03:39;5.37;;;4.87;;
7047;SDS011;3565;53.254;10.352;2023-05-10T16:06:08;4.77;;;4.23;;
7047;SDS011;3565;53.254;10.352;2023-05-10T16:08:46;4.47;;;4.07;;
7047;SDS011;3565;53.254;10.352;2023-05-10T16:11:15;5.27;;;4.33;;
7047;SDS011;3565;53.254;10.352;2023-05-10T16:13:54;7.27;;;4.80;;
7047;SDS011;3565;53.254;10.352;2023-05-10T16:16:23;5.23;;;4.57;;
7047;SDS011;3565;53.254;10.352;2023-05-10T16:18:52;6.50;;;4.63;;
7047;SDS011;3565;53.254;10.352;2023-05-10T16:21:30;5.00;;;4.50;;
7047;SDS011;3565;53.254;10.352;2023-05-10T16:24:01;4.57;;;4.17;;
7047;SDS011;3565;53.254;10.352;2023-05-10T16:26:31;5.93;;;4.67;;
7047;SDS011;3565;53.254;10.352;2023-05-10T16:31:39;4.70;;;4.10;;
7047;SDS011;3565;53.254;10.352;2023-05-10T16:36:45;4.73;;;3.80;;
7047;SDS011;3565;53.254;10.352;2023-05-10T16:39:14;3.97;;;3.67;;
7047;SDS011;3565;53.254;10.352;2023-05-10T16:41:43;3.57;;;3.27;;
7047;SDS011;3565;53.254;10.352;2023-05-10T16:46:49;3.33;;;2.90;;
7047;SDS011;3565;53.254;10.352;2023-05-10T16:49:20;3.37;;;3.07;;
7047;SDS011;3565;53.254;10.352;2023-05-10T16:51:48;3.10;;;2.73;;
7047;SDS011;3565;53.254;10.352;2023-05-10T16:56:55;3.67;;;3.13;;
7047;SDS011;3565;53.254;10.352;2023-05-10T16:59:24;3.60;;;3.30;;
7047;SDS011;3565;53.254;10.352;2023-05-10T17:01:53;3.10;;;2.80;;
7047;SDS011;3565;53.254;10.352;2023-05-10T17:04:22;3.00;;;2.80;;
7047;SDS011;3565;53.254;10.352;2023-05-10T17:06:51;3.20;;;2.87;;
7047;SDS011;3565;53.254;10.352;2023-05-10T17:09:33;3.47;;;3.17;;
7047;SDS011;3565;53.254;10.352;2023-05-10T17:14:39;3.00;;;2.80;;
7047;SDS011;3565;53.254;10.352;2023-05-10T17:17:09;3.37;;;2.80;;
7047;SDS011;3565;53.254;10.352;2023-05-10T17:19:48;3.30;;;2.80;;
7047;SDS011;3565;53.254;10.352;2023-05-10T17:22:17;3.33;;;3.00;;
7047;SDS011;3565;53.254;10.352;2023-05-10T17:27:23;3.57;;;3.27;;
7047;SDS011;3565;53.254;10.352;2023-05-10T17:29:55;3.10;;;2.90;;
7047;SDS011;3565;53.254;10.352;2023-05-10T17:32:24;3.37;;;3.07;;
7047;SDS011;3565;53.254;10.352;2023-05-10T17:34:53;3.77;;;3.47;;
7047;SDS011;3565;53.254;10.352;2023-05-10T17:37:22;3.30;;;3.00;;
7047;SDS011;3565;53.254;10.352;2023-05-10T17:39:51;3.47;;;3.17;;
7047;SDS011;3565;53.254;10.352;2023-05-10T17:42:20;3.80;;;3.40;;
7047;SDS011;3565;53.254;10.352;2023-05-10T17:47:27;4.03;;;3.50;;
7047;SDS011;3565;53.254;10.352;2023-05-10T17:49:59;3.57;;;3.27;;
7047;SDS011;3565;53.254;10.352;2023-05-10T17:52:29;4.33;;;3.50;;
7047;SDS011;3565;53.254;10.352;2023-05-10T17:54:58;4.40;;;4.00;;
7047;SDS011;3565;53.254;10.352;2023-05-10T17:57:28;5.53;;;4.20;;
7047;SDS011;3565;53.254;10.352;2023-05-10T17:59:58;3.90;;;3.50;;
7047;SDS011;3565;53.254;10.352;2023-05-10T18:02:29;4.10;;;3.80;;
7047;SDS011;3565;53.254;10.352;2023-05-10T18:07:35;4.07;;;3.67;;
7047;SDS011;3565;53.254;10.352;2023-05-10T18:10:06;3.57;;;3.27;;
7047;SDS011;3565;53.254;10.352;2023-05-10T18:12:45;4.80;;;4.30;;
7047;SDS011;3565;53.254;10.352;2023-05-10T18:15:15;4.50;;;4.10;;
7047;SDS011;3565;53.254;10.352;2023-05-10T18:17:45;4.37;;;3.97;;
7047;SDS011;3565;53.254;10.352;2023-05-10T18:20:28;4.47;;;4.07;;
7047;SDS011;3565;53.254;10.352;2023-05-10T18:22:58;4.30;;;3.90;;
7047;SDS011;3565;53.254;10.352;2023-05-10T18:25:27;4.40;;;3.90;;
7047;SDS011;3565;53.254;10.352;2023-05-10T18:27:56;4.47;;;4.10;;
7047;SDS011;3565;53.254;10.352;2023-05-10T18:30:25;4.13;;;3.80;;
7047;SDS011;3565;53.254;10.352;2023-05-10T18:32:54;4.17;;;3.77;;
7047;SDS011;3565;53.254;10.352;2023-05-10T18:35:23;4.03;;;3.50;;
7047;SDS011;3565;53.254;10.352;2023-05-10T18:37:53;3.80;;;3.30;;
7047;SDS011;3565;53.254;10.352;2023-05-10T18:40:22;3.40;;;3.20;;
7047;SDS011;3565;53.254;10.352;2023-05-10T18:42:52;4.00;;;3.67;;
7047;SDS011;3565;53.254;10.352;2023-05-10T18:45:24;4.27;;;3.33;;
7047;SDS011;3565;53.254;10.352;2023-05-10T18:47:53;4.57;;;3.40;;
7047;SDS011;3565;53.254;10.352;2023-05-10T18:50:22;3.97;;;3.67;;
7047;SDS011;3565;53.254;10.352;2023-05-10T18:52:51;3.90;;;3.50;;
7047;SDS011;3565;53.254;10.352;2023-05-10T18:55:22;5.00;;;4.13;;
7047;SDS011;3565;53.254;10.352;2023-05-10T18:57:53;4.90;;;4.40;;
7047;SDS011;3565;53.254;10.352;2023-05-10T19:00:22;4.27;;;3.87;;
7047;SDS011;3565;53.254;10.352;2023-05-10T19:02:54;4.10;;;3.70;;
7047;SDS011;3565;53.254;10.352;2023-05-10T19:05:23;4.10;;;3.80;;
7047;SDS011;3565;53.254;10.352;2023-05-10T19:07:53;5.53;;;4.27;;
7047;SDS011;3565;53.254;10.352;2023-05-10T19:10:23;6.47;;;4.80;;
7047;SDS011;3565;53.254;10.352;2023-05-10T19:12:52;5.87;;;5.10;;
7047;SDS011;3565;53.254;10.352;2023-05-10T19:15:21;5.20;;;4.70;;
7047;SDS011;3565;53.254;10.352;2023-05-10T19:20:28;5.67;;;5.17;;
7047;SDS011;3565;53.254;10.352;2023-05-10T19:22:57;5.37;;;4.97;;
7047;SDS011;3565;53.254;10.352;2023-05-10T19:25:26;6.43;;;5.83;;
7047;SDS011;3565;53.254;10.352;2023-05-10T19:28:05;5.77;;;5.27;;
7047;SDS011;3565;53.254;10.352;2023-05-10T19:30:34;6.20;;;5.60;;
7047;SDS011;3565;53.254;10.352;2023-05-10T19:33:13;5.80;;;5.27;;
7047;SDS011;3565;53.254;10.352;2023-05-10T19:38:19;4.77;;;4.37;;
7047;SDS011;3565;53.254;10.352;2023-05-10T19:40:49;5.83;;;5.33;;
7047;SDS011;3565;53.254;10.352;2023-05-10T19:43:21;5.13;;;4.70;;
7047;SDS011;3565;53.254;10.352;2023-05-10T19:45:50;7.13;;;6.43;;
7047;SDS011;3565;53.254;10.352;2023-05-10T19:50:58;6.80;;;6.20;;
7047;SDS011;3565;53.254;10.352;2023-05-10T19:53:28;7.60;;;6.83;;
7047;SDS011;3565;53.254;10.352;2023-05-10T19:56:01;7.00;;;6.40;;